Bookmark and Share
Track history (hours):
 

Tiger

Last reported at 2014-Apr-13 21:33 UTC. Time now 2014-Apr-18 10:43 UTC.
Position N 35°07' E 140°41'.

Length 232 m; draft 10.8 m.

Type: Cargo ship. MMSI: 248223000.

NotesDate/timePositionNaut miles runAvg speedWind from/ knotsBaromVisibWave heightAir tempDewpointWater temp
2014-Apr-13 21:33N 35°07' E 140°41'1716.5
2014-Apr-13 20:32N 34°59' E 140°23'1616.3
2014-Apr-13 19:33N 34°52' E 140°05'1615.8
2014-Apr-13 18:33N 34°46' E 139°47'1515.0
2014-Apr-13 17:33N 35°01' E 139°42'1414.3
2014-Apr-13 16:33N 35°15' E 139°46'1212.4
2014-Apr-13 15:33N 35°27' E 139°43'2 1.9
2014-Apr-13 14:31N 35°28' E 139°41'0 0.0
2014-Apr-13 13:31N 35°28' E 139°41'0 0.0
2014-Apr-13 12:31N 35°28' E 139°41'0 0.0
2014-Apr-13 11:31N 35°28' E 139°41'0 0.0
2014-Apr-13 10:31N 35°28' E 139°41'0 0.0
2014-Apr-13 09:31N 35°28' E 139°41'0 0.0
2014-Apr-13 08:31N 35°28' E 139°41'0 0.0
2014-Apr-13 07:31N 35°28' E 139°41'0 0.0
2014-Apr-13 06:31N 35°28' E 139°41'0 0.0
2014-Apr-13 05:31N 35°28' E 139°41'0 0.0
2014-Apr-13 04:31N 35°28' E 139°41'0 0.0
2014-Apr-13 03:31N 35°28' E 139°41'0 0.0
2014-Apr-13 02:31N 35°28' E 139°41'0 0.5
2014-Apr-13 01:33N 35°28' E 139°42'7 7.1
2014-Apr-13 00:33N 35°21' E 139°45'1211.5
2014-Apr-12 23:33N 35°10' E 139°47'1414.0
2014-Apr-12 22:33N 34°57' E 139°41'1717.0
2014-Apr-12 21:33N 34°41' E 139°32'233 6.8
2014-Apr-11 11:15N 33°50' E 134°57'1216.0
2014-Apr-11 10:32N 34°01' E 134°57'1414.1
2014-Apr-11 09:33N 34°15' E 134°59'1515.2
2014-Apr-11 08:33N 34°28' E 135°08'1515.2
2014-Apr-11 07:33N 34°41' E 135°18'0 0.3
2014-Apr-11 06:17N 34°41' E 135°17'0 0.0
2014-Apr-11 05:29N 34°41' E 135°17'0 0.0
2014-Apr-11 04:29N 34°41' E 135°17'0 0.0
2014-Apr-11 03:17N 34°41' E 135°17'0 0.0
2014-Apr-11 02:29N 34°41' E 135°17'0 0.0
2014-Apr-11 01:23N 34°41' E 135°17'0 0.0
2014-Apr-11 00:29N 34°41' E 135°17'0 0.0
2014-Apr-10 23:17N 34°41' E 135°17'0 0.0
2014-Apr-10 22:23N 34°41' E 135°17'0 0.0
2014-Apr-10 21:29N 34°41' E 135°17'0 0.0
2014-Apr-10 20:29N 34°41' E 135°17'0 0.0
2014-Apr-10 19:29N 34°41' E 135°17'0 0.0
2014-Apr-10 18:29N 34°41' E 135°17'0 0.0
2014-Apr-10 17:23N 34°41' E 135°17'0 0.0
2014-Apr-10 16:29N 34°41' E 135°17'0 0.0
2014-Apr-10 15:23N 34°41' E 135°17'0 0.0
2014-Apr-10 14:29N 34°41' E 135°17'0 0.0
2014-Apr-10 13:29N 34°41' E 135°17'0 0.0
2014-Apr-10 12:29N 34°41' E 135°17'0 0.0
2014-Apr-10 11:29N 34°41' E 135°17'0 0.0
2014-Apr-10 10:29N 34°41' E 135°17'0 0.0
2014-Apr-10 09:17N 34°41' E 135°17'0 0.0
2014-Apr-10 08:29N 34°41' E 135°17'0 0.0
2014-Apr-10 07:29N 34°41' E 135°17'0 0.0
2014-Apr-10 06:29N 34°41' E 135°17'0 0.0
2014-Apr-10 05:29N 34°41' E 135°17'0 0.0
2014-Apr-10 04:23N 34°41' E 135°17'0 0.0
2014-Apr-10 03:29N 34°41' E 135°17'0 0.0
2014-Apr-10 01:29N 34°41' E 135°17'0 0.4
2014-Apr-10 00:33N 34°41' E 135°18'8 8.4
2014-Apr-09 23:33N 34°33' E 135°16'1717.0
2014-Apr-09 22:33N 34°21' E 135°02'1413.7
2014-Apr-09 21:33N 34°07' E 134°58'12512.2
2014-Apr-09 11:17N 32°26' E 133°31'266 8.9
2014-Apr-08 05:31N 35°08' E 129°17'  

Dump ship's entire track history

sailing weather and tide predictions

Tiger — 9HA2271 — position and weather